Cedar Ravine, California
Current Conditions -  °F | °C
As of 1:55 AM on Friday 28 Nov 2014 (Local Time) from KPVF Reporting Station
Clear Clear  
Wind Chill: 55°   Ceiling: Unl
Heat Index: 55°   Visibility: 10mi
Dew Point: 30°   Wind: 9mph
Humidity: 38%   Direction: 130°SE
Pressure: 30.09"   Gusts: NA
Location:  38.7308°N, 120.774°W
Report Text: KPVF 280955Z AUTO 13008KT 10SM CLR 13/M01 A3009 RMK AO1
Loading
Personal Weather Stations






























Interactive Weather Map New forecast layout! Learn more

10-Day Weather Forecast

Advertisements
Track Severe Weather on mobile